Time;durP1;ratioP1;P1;durP2;ratioP2;P2;SDS_P1;SDS_P2;PMS_P1;PMS_P2;Temp;Humidity;BMP_temperature;BMP_pressure;BME280_temperature;BME280_humidity;BME280_pressure;Samples;Min_cycle;Max_cycle;Signal;HPM_P1;HPM_P2
2022/05/05 00:01:00;;;;;;;7.30;3.47;;;;;;;17.85;77.48;101539.63;5029425;28;20451;-88
2022/05/05 00:03:30;;;;;;;7.57;3.80;;;;;;;17.79;76.98;101534.13;4993274;28;20817;-88
2022/05/05 00:06:00;;;;;;;10.53;4.00;;;;;;;17.85;76.80;101549.84;5009542;28;20441;-88
2022/05/05 00:08:30;;;;;;;11.93;4.13;;;;;;;17.82;76.84;101562.19;5026408;28;20442;-88
2022/05/05 00:16:33;;;;;;;10.50;4.37;;;;;;;17.58;79.49;101561.00;5014146;28;20958;-88
2022/05/05 00:19:02;;;;;;;7.87;4.07;;;;;;;17.54;79.58;101558.88;4954121;29;20435;-87
2022/05/05 00:21:30;;;;;;;9.83;5.13;;;;;;;17.53;79.82;101557.19;4937637;29;20447;-88
2022/05/05 00:23:58;;;;;;;9.43;4.37;;;;;;;17.50;80.04;101554.88;4938123;29;20443;-88
2022/05/05 00:26:27;;;;;;;8.97;4.23;;;;;;;17.49;80.45;101558.72;4918430;29;20448;-87
2022/05/05 00:28:56;;;;;;;16.00;4.83;;;;;;;17.44;80.06;101558.53;4952814;29;20944;-88
2022/05/05 00:31:23;;;;;;;8.47;4.27;;;;;;;17.34;80.71;101558.13;4937916;29;20834;-87
2022/05/05 00:33:51;;;;;;;12.10;3.57;;;;;;;17.26;80.82;101549.03;4937335;29;20486;-87
2022/05/05 00:36:19;;;;;;;13.33;4.27;;;;;;;17.22;81.25;101555.19;4930058;28;20439;-88
2022/05/05 00:38:47;;;;;;;10.40;3.63;;;;;;;17.13;81.40;101551.81;5010459;28;20458;-88
2022/05/05 00:41:15;;;;;;;6.57;3.50;;;;;;;17.04;81.77;101542.09;4980655;28;20441;-88
2022/05/05 00:43:43;;;;;;;9.83;4.50;;;;;;;17.00;81.49;101551.84;5013494;28;20448;-88
2022/05/05 00:46:12;;;;;;;7.33;4.40;;;;;;;16.92;82.07;101552.97;5013365;28;20479;-89
2022/05/05 00:48:43;;;;;;;15.53;4.37;;;;;;;16.82;82.62;101543.41;5028579;28;20795;-89
2022/05/05 00:51:11;;;;;;;9.30;3.70;;;;;;;16.77;82.84;101541.28;5012669;28;20475;-89
2022/05/05 00:53:39;;;;;;;10.43;5.13;;;;;;;16.69;83.12;101543.44;4978827;28;20443;-89
2022/05/05 00:56:13;;;;;;;9.10;4.30;;;;;;;16.58;82.94;101536.59;5012003;28;20448;-88
2022/05/05 00:58:42;;;;;;;4.77;3.67;;;;;;;16.50;83.78;101529.41;4981369;28;20440;-89
2022/05/05 01:01:10;;;;;;;7.70;4.33;;;;;;;16.47;84.10;101535.34;4980184;28;20451;-89
2022/05/05 01:03:38;;;;;;;8.50;4.10;;;;;;;16.41;84.28;101536.19;4996001;28;20458;-89
2022/05/05 01:06:06;;;;;;;8.87;4.20;;;;;;;16.37;84.22;101532.16;4976776;28;20453;-89
2022/05/05 01:08:34;;;;;;;7.37;4.10;;;;;;;16.34;84.30;101538.13;4960849;28;20445;-89
2022/05/05 01:11:01;;;;;;;8.00;4.20;;;;;;;16.20;83.94;101526.22;4960726;28;20452;-89
2022/05/05 01:13:29;;;;;;;12.47;4.23;;;;;;;16.11;83.69;101523.91;4977098;28;20494;-88
2022/05/05 01:15:57;;;;;;;12.63;3.80;;;;;;;16.07;84.20;101530.91;5012390;28;20933;-88
2022/05/05 01:18:25;;;;;;;8.50;3.43;;;;;;;16.03;84.16;101532.38;4996213;28;20444;-89
2022/05/05 01:20:54;;;;;;;6.40;3.60;;;;;;;16.02;84.39;101531.53;5011918;28;20437;-89
2022/05/05 01:23:22;;;;;;;8.03;4.13;;;;;;;15.97;84.30;101530.47;4996069;28;20463;-89
2022/05/05 01:28:40;;;;;;;7.10;3.70;;;;;;;15.81;84.55;101543.56;4998977;28;20480;-89
2022/05/05 01:31:07;;;;;;;10.80;3.63;;;;;;;15.76;84.79;101534.25;4995996;28;20527;-89
2022/05/05 01:33:35;;;;;;;9.77;3.37;;;;;;;15.67;84.98;101532.72;4995599;28;20437;-89
2022/05/05 01:36:03;;;;;;;6.90;3.60;;;;;;;15.67;85.23;101536.34;4999871;28;20444;-89
2022/05/05 01:38:39;;;;;;;12.03;4.37;;;;;;;15.65;84.96;101534.84;4983062;28;20471;-89
2022/05/05 01:41:12;;;;;;;6.80;3.93;;;;;;;15.55;85.56;101529.72;4995262;28;20526;-89
2022/05/05 01:43:42;;;;;;;5.90;3.87;;;;;;;15.46;85.56;101531.78;5019719;28;20478;-89
2022/05/05 01:46:10;;;;;;;8.83;3.80;;;;;;;15.41;86.02;101530.69;5017575;28;20457;-89
2022/05/05 01:48:40;;;;;;;8.63;4.57;;;;;;;15.35;86.78;101534.28;5002576;28;20449;-89
2022/05/05 01:51:07;;;;;;;11.97;4.60;;;;;;;15.37;86.92;101538.56;4980535;28;20469;-89
2022/05/05 01:53:39;;;;;;;11.60;4.00;;;;;;;15.29;87.23;101535.09;5015974;28;20439;-89
2022/05/05 01:56:11;;;;;;;7.50;3.90;;;;;;;15.23;87.62;101533.16;5015621;28;20475;-89
2022/05/05 01:58:44;;;;;;;8.63;3.57;;;;;;;15.27;87.98;101538.06;5015728;28;20519;-88
2022/05/05 02:01:12;;;;;;;7.07;3.83;;;;;;;15.34;88.36;101541.72;5012722;28;20440;-89
2022/05/05 02:03:40;;;;;;;16.03;4.30;;;;;;;15.43;88.02;101545.13;4996064;28;20440;-90
2022/05/05 02:06:08;;;;;;;9.57;4.70;;;;;;;15.48;87.62;101539.84;4998931;28;20468;-88
2022/05/05 02:08:38;;;;;;;5.97;3.60;;;;;;;15.41;87.69;101520.53;4999431;28;20444;-88
2022/05/05 02:11:07;;;;;;;13.77;3.63;;;;;;;15.42;87.72;101529.63;5021631;28;20819;-88
2022/05/05 02:13:35;;;;;;;15.13;4.03;;;;;;;15.44;87.89;101544.06;5034929;28;21086;-88
2022/05/05 02:16:02;;;;;;;7.93;3.93;;;;;;;15.47;88.18;101549.16;5002670;28;20487;-88
2022/05/05 02:18:31;;;;;;;5.80;4.00;;;;;;;15.44;88.07;101547.66;5051146;28;20470;-87
2022/05/05 02:20:59;;;;;;;9.73;3.83;;;;;;;15.36;88.06;101541.50;5012912;28;20452;-87
2022/05/05 02:23:28;;;;;;;9.87;4.83;;;;;;;15.41;88.55;101547.22;4993944;28;20448;-88
2022/05/05 02:25:57;;;;;;;10.40;4.20;;;;;;;15.42;88.60;101540.66;5019310;28;20443;-88
2022/05/05 02:28:26;;;;;;;7.70;4.60;;;;;;;15.44;88.75;101536.66;4974179;28;20845;-88
2022/05/05 02:30:54;;;;;;;10.13;3.67;;;;;;;15.50;88.74;101537.75;5018354;28;20431;-88
2022/05/05 02:33:22;;;;;;;10.30;3.80;;;;;;;15.52;88.53;101542.00;5016902;28;20864;-88
2022/05/05 02:38:42;;;;;;;11.60;4.30;;;;;;;15.58;88.56;101545.88;5016416;28;20479;-87
2022/05/05 02:38:42;;;;;;;13.17;4.30;;;;;;;15.59;88.02;101543.97;5048233;28;20956;-88
2022/05/05 02:41:11;;;;;;;5.27;3.77;;;;;;;15.59;87.80;101539.25;5021545;28;20456;-87
2022/05/05 02:43:40;;;;;;;10.57;4.70;;;;;;;15.59;87.79;101543.97;5034564;28;20875;-88
2022/05/05 02:46:09;;;;;;;8.50;4.20;;;;;;;15.53;87.97;101531.81;5034110;28;20436;-87
2022/05/05 02:48:38;;;;;;;10.33;4.23;;;;;;;15.57;87.64;101538.66;5035136;28;20435;-87
2022/05/05 02:51:06;;;;;;;12.83;4.93;;;;;;;15.62;87.91;101541.63;5027992;28;20774;-88
2022/05/05 02:56:22;;;;;;;11.73;4.07;;;;;;;15.55;87.80;101540.72;4953086;28;20565;-87
2022/05/05 02:58:49;;;;;;;8.77;4.00;;;;;;;15.51;87.72;101540.28;4979088;28;20962;-88
2022/05/05 03:01:17;;;;;;;7.63;4.00;;;;;;;15.43;88.09;101532.19;5007735;28;20439;-88
2022/05/05 03:03:45;;;;;;;6.97;4.60;;;;;;;15.38;88.61;101534.75;5018007;28;20428;-88
2022/05/05 03:06:13;;;;;;;9.87;3.77;;;;;;;15.34;88.41;101530.69;5017830;28;20523;-88
2022/05/05 03:08:41;;;;;;;7.13;4.10;;;;;;;15.35;88.16;101535.16;5017374;28;20454;-87
2022/05/05 03:11:11;;;;;;;11.07;3.60;;;;;;;15.33;88.21;101545.53;5008891;28;20820;-87
2022/05/05 03:13:39;;;;;;;5.73;3.97;;;;;;;15.32;88.25;101540.22;5013199;28;20822;-87
2022/05/05 03:16:06;;;;;;;7.30;4.17;;;;;;;15.33;88.36;101547.44;5013945;28;20472;-88
2022/05/05 03:18:34;;;;;;;14.43;4.83;;;;;;;15.29;88.60;101546.13;4997517;28;20949;-87
2022/05/05 03:21:03;;;;;;;9.83;4.10;;;;;;;15.32;88.80;101548.47;5001195;28;20440;-87
2022/05/05 03:23:31;;;;;;;11.33;4.40;;;;;;;15.31;88.18;101547.63;5034602;28;20439;-88
2022/05/05 03:25:58;;;;;;;11.37;3.80;;;;;;;15.37;88.48;101551.47;5017603;28;20454;-87
2022/05/05 03:28:27;;;;;;;14.43;4.10;;;;;;;15.39;88.00;101552.13;5033740;28;20443;-87
2022/05/05 03:30:55;;;;;;;14.47;5.03;;;;;;;15.36;88.34;101553.38;5014692;28;20460;-88
2022/05/05 03:33:23;;;;;;;9.17;4.23;;;;;;;15.34;88.31;101560.13;5014825;28;20461;-88
2022/05/05 03:35:51;;;;;;;8.77;4.47;;;;;;;15.32;88.63;101565.00;5000658;28;21064;-88
2022/05/05 03:38:18;;;;;;;11.43;4.60;;;;;;;15.20;88.13;101553.72;5033492;28;20439;-88
2022/05/05 03:40:46;;;;;;;7.47;3.83;;;;;;;15.13;88.22;101566.59;5032377;28;20446;-88
2022/05/05 03:43:15;;;;;;;8.07;4.27;;;;;;;15.05;88.43;101566.75;4997876;28;20456;-88
2022/05/05 03:45:42;;;;;;;7.43;4.00;;;;;;;14.92;87.70;101553.78;5013099;28;20452;-88
2022/05/05 03:48:10;;;;;;;6.50;4.37;;;;;;;14.91;88.02;101565.84;5029997;28;20444;-88
2022/05/05 03:50:39;;;;;;;10.63;4.00;;;;;;;14.87;88.40;101575.53;4997634;28;20444;-89
2022/05/05 03:53:07;;;;;;;7.27;3.70;;;;;;;14.82;88.31;101570.63;4992553;28;20463;-88
2022/05/05 03:55:35;;;;;;;8.93;4.57;;;;;;;14.76;88.73;101578.88;4993645;28;20477;-88
2022/05/05 03:58:02;;;;;;;7.53;4.50;;;;;;;14.68;88.81;101577.09;4990223;28;20448;-87
2022/05/05 04:00:30;;;;;;;9.37;3.90;;;;;;;14.66;89.07;101570.09;5013382;28;20447;-88
2022/05/05 04:05:44;;;;;;;9.73;3.80;;;;;;;14.56;89.46;101597.13;5019182;28;20449;-87
2022/05/05 04:08:12;;;;;;;8.23;3.70;;;;;;;14.96;89.11;101673.44;5032780;28;20530;-88
2022/05/05 04:10:40;;;;;;;6.83;3.70;;;;;;;14.42;89.25;101585.16;5032860;28;20482;-88
2022/05/05 04:13:07;;;;;;;6.30;4.07;;;;;;;14.32;89.74;101593.72;4981815;28;20459;-88
2022/05/05 04:15:35;;;;;;;10.33;4.70;;;;;;;14.34;89.44;101596.25;4996944;28;20890;-88
2022/05/05 04:18:04;;;;;;;8.33;4.20;;;;;;;14.27;89.45;101590.69;5012542;28;20436;-88
2022/05/05 04:20:31;;;;;;;11.40;4.20;;;;;;;14.16;89.66;101580.25;4997013;28;20444;-88
2022/05/05 04:23:01;;;;;;;6.73;4.03;;;;;;;14.21;89.74;101596.16;4991329;28;21003;-88
2022/05/05 04:25:49;;;;;;;7.37;4.10;;;;;;;14.18;90.02;101597.38;5031618;28;20813;-88
2022/05/05 04:28:18;;;;;;;7.37;3.90;;;;;;;14.21;90.18;101605.25;5000723;28;20531;-88
2022/05/05 04:30:46;;;;;;;6.77;4.13;;;;;;;14.17;89.96;101601.19;5012209;28;20466;-88
2022/05/05 04:33:14;;;;;;;4.70;3.77;;;;;;;14.06;90.40;101593.44;4997596;28;20444;-88
2022/05/05 04:35:42;;;;;;;9.33;3.67;;;;;;;14.14;90.21;101609.81;5016475;28;20479;-88
2022/05/05 04:38:11;;;;;;;6.43;3.60;;;;;;;14.09;89.96;101606.81;5014245;28;20440;-87
2022/05/05 04:40:39;;;;;;;8.73;4.33;;;;;;;14.04;89.78;101617.56;5023681;28;20833;-87
2022/05/05 04:43:07;;;;;;;6.70;4.23;;;;;;;14.06;89.95;101626.44;4994819;28;20435;-87
2022/05/05 04:45:35;;;;;;;10.23;3.83;;;;;;;14.00;90.04;101621.72;5015514;28;20442;-88
2022/05/05 04:48:03;;;;;;;10.60;5.13;;;;;;;13.93;89.71;101620.78;5015814;28;20534;-88
2022/05/05 04:50:30;;;;;;;5.80;3.80;;;;;;;13.87;90.16;101621.56;4999964;28;20439;-88
2022/05/05 04:52:58;;;;;;;9.80;4.00;;;;;;;13.82;90.46;101623.03;5030679;28;20454;-88
2022/05/05 04:55:26;;;;;;;10.93;3.97;;;;;;;13.73;89.94;101628.81;5016347;28;20473;-90
2022/05/05 04:57:55;;;;;;;4.60;3.60;;;;;;;13.63;89.98;101623.63;5004200;28;20444;-90
2022/05/05 05:00:23;;;;;;;9.37;4.53;;;;;;;13.61;90.30;101628.47;5012247;28;20444;-89
2022/05/05 05:02:50;;;;;;;5.70;3.70;;;;;;;13.51;91.05;101608.66;5006912;28;20440;-90
2022/05/05 05:05:18;;;;;;;5.90;4.03;;;;;;;13.64;91.17;101629.97;5015479;28;20443;-90
2022/05/05 05:07:47;;;;;;;7.93;3.73;;;;;;;13.67;91.26;101638.66;5046374;28;20446;-90
2022/05/05 05:10:14;;;;;;;9.70;3.97;;;;;;;13.67;90.91;101633.16;4995897;28;20565;-88
2022/05/05 05:12:42;;;;;;;7.20;4.00;;;;;;;13.62;90.67;101623.81;5022364;28;20454;-88
2022/05/05 05:15:11;;;;;;;8.20;4.60;;;;;;;13.66;90.35;101641.63;5031816;28;20976;-88
2022/05/05 05:17:39;;;;;;;8.20;5.10;;;;;;;13.63;90.43;101639.25;5021172;28;20448;-88
2022/05/05 05:20:07;;;;;;;10.03;4.20;;;;;;;13.60;90.50;101645.13;4995957;28;20820;-88
2022/05/05 05:22:35;;;;;;;10.07;3.50;;;;;;;13.53;90.56;101645.03;5020905;28;20472;-88
2022/05/05 05:25:02;;;;;;;6.77;3.57;;;;;;;13.49;90.39;101644.56;5031678;28;20443;-89
2022/05/05 05:27:30;;;;;;;7.87;3.27;;;;;;;13.42;90.11;101640.03;5000630;28;20961;-87
2022/05/05 05:29:57;;;;;;;4.73;3.67;;;;;;;13.33;89.73;101652.16;4993107;28;20977;-88
2022/05/05 05:32:25;;;;;;;5.00;3.77;;;;;;;13.40;90.83;101666.84;5015136;28;20957;-87
2022/05/05 05:34:53;;;;;;;5.17;3.13;;;;;;;13.45;90.84;101667.13;5031646;28;20444;-87
2022/05/05 05:37:21;;;;;;;3.50;3.20;;;;;;;13.43;90.71;101674.69;5015531;28;20451;-88
2022/05/05 05:39:48;;;;;;;5.53;3.93;;;;;;;13.40;90.85;101675.94;5031448;28;20490;-87
2022/05/05 05:42:19;;;;;;;5.40;3.73;;;;;;;13.43;90.92;101682.94;5013147;28;20527;-88
2022/05/05 05:44:47;;;;;;;6.63;3.13;;;;;;;13.37;90.52;101687.28;5012123;28;20459;-88
2022/05/05 05:47:16;;;;;;;4.97;3.30;;;;;;;13.31;90.53;101684.44;5001131;28;20968;-87
2022/05/05 05:49:43;;;;;;;6.90;3.40;;;;;;;13.33;90.57;101696.09;5015425;28;20531;-87
2022/05/05 05:52:11;;;;;;;9.37;3.73;;;;;;;13.31;89.99;101696.28;4993882;28;20432;-87
2022/05/05 05:54:38;;;;;;;10.93;3.80;;;;;;;13.30;90.48;101699.19;5015685;28;20447;-87
2022/05/05 05:57:06;;;;;;;10.27;5.07;;;;;;;13.30;90.30;101701.94;5014890;28;20537;-87
2022/05/05 05:59:34;;;;;;;11.00;3.93;;;;;;;13.30;90.53;101724.75;5015475;28;20486;-87
2022/05/05 06:04:52;;;;;;;8.63;4.13;;;;;;;13.28;90.27;101731.47;5032269;28;20447;-85
2022/05/05 06:07:21;;;;;;;9.77;4.17;;;;;;;13.29;90.58;101733.19;5015732;28;20431;-88
2022/05/05 06:09:49;;;;;;;5.30;3.90;;;;;;;13.29;90.33;101750.50;5030764;28;20459;-87
2022/05/05 06:12:17;;;;;;;6.40;4.30;;;;;;;13.28;90.69;101747.94;5007558;28;20563;-88
2022/05/05 06:14:50;;;;;;;10.97;4.37;;;;;;;13.26;91.10;101736.31;4979114;28;20543;-87
2022/05/05 06:17:18;;;;;;;9.60;3.90;;;;;;;13.35;90.72;101754.41;5011456;28;20445;-87
2022/05/05 06:19:46;;;;;;;7.63;4.73;;;;;;;13.37;90.89;101758.69;4980272;28;20440;-87
2022/05/05 06:22:26;;;;;;;7.07;4.33;;;;;;;13.47;90.72;101761.13;4984837;28;20438;-87
2022/05/05 06:24:53;;;;;;;5.07;3.83;;;;;;;13.44;91.12;101747.81;5015071;28;20451;-87
2022/05/05 06:27:23;;;;;;;9.00;4.37;;;;;;;13.60;91.09;101771.50;4999022;28;20480;-88
2022/05/05 06:30:05;;;;;;;7.17;4.80;;;;;;;13.64;90.79;101759.94;4999352;28;20519;-86
2022/05/05 06:32:35;;;;;;;5.80;3.70;;;;;;;13.70;91.12;101759.16;5015063;28;20436;-88
2022/05/05 06:35:03;;;;;;;8.70;4.80;;;;;;;13.73;91.00;101753.28;5014967;28;20436;-87
2022/05/05 06:37:33;;;;;;;11.90;4.83;;;;;;;13.86;91.18;101773.75;4998710;28;20437;-87
2022/05/05 06:40:08;;;;;;;7.13;4.70;;;;;;;13.85;91.07;101764.69;4984393;28;20447;-88
2022/05/05 06:42:37;;;;;;;7.80;4.23;;;;;;;13.99;91.27;101773.94;5010139;28;20456;-88
2022/05/05 06:45:09;;;;;;;12.20;4.87;;;;;;;13.97;91.38;101765.88;5014456;28;20428;-88
2022/05/05 06:47:40;;;;;;;10.80;4.70;;;;;;;14.08;91.27;101765.38;4998834;28;20530;-87
2022/05/05 06:50:16;;;;;;;8.87;4.57;;;;;;;14.16;91.25;101765.28;4999013;28;20451;-87
2022/05/05 06:52:43;;;;;;;10.80;4.67;;;;;;;14.23;91.37;101768.13;4994465;28;20442;-87
2022/05/05 06:55:12;;;;;;;14.43;3.87;;;;;;;14.46;91.79;101782.59;4995793;28;20437;-87
2022/05/05 06:57:41;;;;;;;21.40;5.90;;;;;;;14.63;92.01;101787.84;4998435;28;20514;-88
2022/05/05 07:00:08;;;;;;;35.40;5.57;;;;;;;14.81;91.96;101791.03;5014418;28;20435;-87
2022/05/05 07:02:36;;;;;;;12.53;4.47;;;;;;;14.96;92.16;101789.06;4998352;28;20476;-87
2022/05/05 07:05:24;;;;;;;12.70;4.50;;;;;;;15.21;92.37;101793.09;4980333;28;20476;-88
2022/05/05 07:07:55;;;;;;;7.50;4.40;;;;;;;15.42;92.45;101791.34;5027612;28;20445;-88
2022/05/05 07:13:12;;;;;;;8.97;4.10;;;;;;;15.77;92.39;101779.38;5014162;28;20440;-88
2022/05/05 07:15:41;;;;;;;10.53;4.60;;;;;;;15.93;91.56;101780.09;5006695;28;20483;-89
2022/05/05 07:18:09;;;;;;;17.43;5.57;;;;;;;16.13;91.49;101797.59;4979078;28;20430;-89
2022/05/05 07:20:37;;;;;;;14.50;4.83;;;;;;;16.24;90.79;101777.69;4998175;28;20429;-89
2022/05/05 07:23:12;;;;;;;16.10;5.10;;;;;;;16.43;90.40;101793.47;4993831;28;20445;-89
2022/05/05 07:25:43;;;;;;;21.23;4.97;;;;;;;16.62;89.51;101796.50;4995164;28;20484;-87
2022/05/05 07:28:12;;;;;;;9.00;4.20;;;;;;;16.74;89.07;101784.66;4993938;28;20462;-87
2022/05/05 07:30:42;;;;;;;12.40;4.60;;;;;;;16.87;88.88;101789.38;4997879;28;20440;-87
2022/05/05 07:33:13;;;;;;;19.53;4.87;;;;;;;17.01;88.70;101791.09;5013413;28;21153;-89
2022/05/05 07:35:44;;;;;;;10.33;4.47;;;;;;;17.17;88.37;101798.09;4983972;28;20491;-89
2022/05/05 07:38:13;;;;;;;9.60;4.23;;;;;;;17.30;87.53;101805.56;4994044;28;20442;-90
2022/05/05 07:40:47;;;;;;;14.77;4.50;;;;;;;17.41;87.60;101802.16;5013248;28;20792;-89
2022/05/05 07:43:15;;;;;;;12.60;5.00;;;;;;;17.53;86.88;101809.59;5011351;28;20483;-90
2022/05/05 07:45:44;;;;;;;10.70;4.67;;;;;;;17.61;86.68;101803.00;5012335;28;20546;-89
2022/05/05 07:48:12;;;;;;;13.60;5.07;;;;;;;17.70;86.31;101815.59;4981247;28;20428;-89
2022/05/05 07:50:40;;;;;;;8.33;4.60;;;;;;;17.73;85.80;101806.84;4997174;28;20441;-88
2022/05/05 07:53:12;;;;;;;11.43;3.80;;;;;;;17.77;85.85;101802.56;4976609;28;20447;-87
2022/05/05 07:55:39;;;;;;;10.10;4.13;;;;;;;17.94;85.57;101814.03;4996768;28;20991;-90
2022/05/05 07:58:07;;;;;;;13.17;4.10;;;;;;;18.02;85.46;101821.25;4997246;28;20459;-89
2022/05/05 08:00:38;;;;;;;7.53;3.93;;;;;;;18.07;84.75;101818.69;4993617;28;20850;-89
2022/05/05 08:03:05;;;;;;;11.80;4.10;;;;;;;18.22;84.60;101833.13;5009778;28;20448;-87
2022/05/05 08:05:33;;;;;;;9.37;4.07;;;;;;;18.30;83.99;101830.94;4961655;28;20441;-87
2022/05/05 08:08:00;;;;;;;7.20;4.63;;;;;;;18.34;83.58;101813.91;4997145;28;20502;-87
2022/05/05 08:10:29;;;;;;;10.60;4.43;;;;;;;18.50;83.17;101825.34;5028958;28;20555;-87
2022/05/05 08:12:57;;;;;;;9.13;4.47;;;;;;;18.66;81.96;101834.25;5012553;28;20468;-88
2022/05/05 08:15:25;;;;;;;7.73;4.00;;;;;;;18.76;80.94;101831.84;5028977;28;20541;-88
2022/05/05 08:17:53;;;;;;;7.90;4.13;;;;;;;18.84;80.41;101832.47;5008878;28;20492;-89
2022/05/05 08:20:29;;;;;;;19.27;4.57;;;;;;;18.98;80.15;101838.75;4977311;28;20475;-92
2022/05/05 08:23:23;;;;;;;6.60;4.23;;;;;;;19.14;79.95;101843.75;4978415;28;20449;-92
2022/05/05 08:28:41;;;;;;;11.30;4.60;;;;;;;19.41;80.33;101851.91;5013661;28;20586;-92
2022/05/05 08:31:21;;;;;;;6.10;3.90;;;;;;;19.53;79.54;101841.78;4994217;28;20449;-92
2022/05/05 08:37:31;;;;;;;9.33;4.43;;;;;;;19.74;78.60;101838.63;5014159;28;20506;-92
2022/05/05 08:40:28;;;;;;;7.67;4.47;;;;;;;19.95;78.05;101845.69;4998653;28;20499;-92
2022/05/05 10:06:07;;;;;;;26.07;3.90;;;;;;;23.95;65.21;101873.19;5013429;28;20991;-87
2022/05/05 10:08:42;;;;;;;17.50;4.07;;;;;;;24.09;64.61;101877.28;4986760;28;20455;-87
2022/05/05 10:11:10;;;;;;;10.43;3.33;;;;;;;24.17;63.95;101876.03;5002611;28;20445;-87
2022/05/05 10:13:38;;;;;;;10.70;3.80;;;;;;;24.28;63.35;101875.94;5018337;28;20447;-87
2022/05/05 10:16:06;;;;;;;4.70;2.90;;;;;;;24.33;62.90;101862.03;4986263;28;20477;-87
2022/05/05 10:18:38;;;;;;;3.80;2.53;;;;;;;24.49;62.61;101879.03;5002685;28;20431;-88
2022/05/05 10:21:07;;;;;;;10.57;3.27;;;;;;;24.57;62.56;101882.22;4987233;28;20444;-87
2022/05/05 10:23:38;;;;;;;5.30;3.27;;;;;;;24.64;61.56;101880.06;5002573;28;20455;-87
2022/05/05 10:26:06;;;;;;;15.73;3.50;;;;;;;24.70;61.15;101875.38;5018513;28;20439;-87
2022/05/05 10:28:47;;;;;;;3.33;2.50;;;;;;;24.76;61.04;101874.34;5002732;28;20442;-88
2022/05/05 10:31:34;;;;;;;7.77;2.77;;;;;;;24.91;61.25;101885.72;4988574;28;20436;-88
2022/05/05 10:34:13;;;;;;;6.63;2.93;;;;;;;24.96;61.08;101874.63;5036071;28;20439;-86
2022/05/05 10:36:55;;;;;;;8.67;4.07;;;;;;;25.10;61.15;101875.06;5002888;28;20478;-87
2022/05/05 10:39:25;;;;;;;6.43;2.80;;;;;;;25.21;60.44;101874.03;4939616;29;20461;-89
2022/05/05 10:45:30;;;;;;;10.90;3.07;;;;;;;25.50;59.77;101877.41;4955735;29;20443;-87
2022/05/05 10:47:59;;;;;;;9.80;3.77;;;;;;;25.63;59.66;101870.56;4955687;29;20431;-88
2022/05/05 10:53:25;;;;;;;5.90;3.23;;;;;;;25.86;58.71;101866.53;4955462;29;20525;-87
2022/05/05 10:55:53;;;;;;;5.67;3.20;;;;;;;25.92;58.44;101866.31;4971249;28;20522;-88
2022/05/05 10:58:57;;;;;;;13.70;3.63;;;;;;;26.00;58.36;101878.97;4940022;29;20509;-87
2022/05/05 11:01:26;;;;;;;8.20;3.70;;;;;;;26.08;58.28;101873.72;4939370;29;20502;-88
2022/05/05 11:04:07;;;;;;;4.93;2.90;;;;;;;26.12;57.57;101869.28;4959339;28;20446;-87
2022/05/05 11:06:38;;;;;;;8.67;3.13;;;;;;;26.25;57.66;101873.53;5017443;28;21019;-87
2022/05/05 11:09:06;;;;;;;9.03;2.80;;;;;;;26.37;57.57;101867.75;5002035;28;20498;-88
2022/05/05 11:11:41;;;;;;;12.97;3.33;;;;;;;26.51;57.28;101871.75;5018108;28;20435;-87
2022/05/05 11:23:32;;;;;;;10.10;3.40;;;;;;;26.96;55.18;101853.44;5001027;28;20936;-87
2022/05/05 11:26:00;;;;;;;27.53;3.77;;;;;;;27.05;55.30;101848.97;5018043;28;20521;-88
2022/05/05 11:28:29;;;;;;;6.03;2.73;;;;;;;27.04;55.25;101841.69;5017927;28;20519;-88
2022/05/05 11:30:57;;;;;;;15.93;3.03;;;;;;;27.09;55.25;101836.09;5001511;28;20439;-88
2022/05/05 11:33:26;;;;;;;12.23;3.27;;;;;;;27.08;55.31;101832.44;5018369;28;20482;-88
2022/05/05 11:35:58;;;;;;;22.63;3.20;;;;;;;27.14;54.97;101834.09;5017308;28;20439;-88
2022/05/05 11:38:29;;;;;;;8.00;3.00;;;;;;;27.21;54.22;101833.84;4985509;28;20447;-88
2022/05/05 11:41:05;;;;;;;7.27;3.23;;;;;;;27.27;54.24;101832.75;5011371;28;20439;-88
2022/05/05 11:46:21;;;;;;;8.30;2.60;;;;;;;27.48;53.93;101850.44;5006286;28;20482;-87
2022/05/05 11:48:56;;;;;;;4.67;2.77;;;;;;;27.41;53.66;101833.88;5001095;28;20452;-88
2022/05/05 11:51:25;;;;;;;6.73;2.80;;;;;;;27.49;53.89;101841.75;4984973;28;20492;-88
2022/05/05 11:54:07;;;;;;;23.73;3.90;;;;;;;27.62;54.06;101839.53;5010023;28;20448;-87
2022/05/05 11:56:37;;;;;;;11.83;3.73;;;;;;;27.72;54.13;101833.88;5002222;28;20880;-88
2022/05/05 12:02:09;;;;;;;6.77;2.70;;;;;;;27.82;53.79;101833.88;4988290;28;21090;-88
2022/05/05 12:04:42;;;;;;;7.67;2.83;;;;;;;27.90;53.73;101840.91;4963680;28;20532;-88
2022/05/05 12:07:23;;;;;;;12.70;3.47;;;;;;;27.93;53.86;101835.53;4962246;28;20441;-88
2022/05/05 12:09:52;;;;;;;6.80;2.67;;;;;;;28.00;54.19;101836.09;4993917;28;20445;-88
2022/05/05 12:12:22;;;;;;;10.93;3.10;;;;;;;28.12;54.12;101833.81;4977385;28;20552;-87
2022/05/05 12:15:11;;;;;;;11.70;3.50;;;;;;;28.19;53.59;101837.22;4961728;28;20444;-87
2022/05/05 12:17:50;;;;;;;7.90;3.67;;;;;;;28.17;54.04;101835.78;4960805;28;20491;-88
2022/05/05 12:20:20;;;;;;;13.53;3.70;;;;;;;28.07;53.55;101831.03;4962337;28;20805;-88
2022/05/05 12:23:18;;;;;;;11.40;3.40;;;;;;;28.03;53.99;101838.34;4977450;28;20445;-88
2022/05/05 12:25:46;;;;;;;8.03;2.93;;;;;;;27.88;54.43;101832.75;4975696;28;20524;-87
2022/05/05 12:28:14;;;;;;;8.27;3.40;;;;;;;27.93;54.39;101829.94;4993182;28;20441;-88
2022/05/05 12:30:42;;;;;;;7.30;2.40;;;;;;;27.88;54.72;101827.16;4961299;28;20477;-88
2022/05/05 12:33:14;;;;;;;18.50;3.73;;;;;;;27.95;54.91;101833.28;4945506;28;20515;-87
2022/05/05 12:35:43;;;;;;;9.40;3.43;;;;;;;27.95;54.35;101832.47;4962487;28;20865;-88
2022/05/05 12:38:13;;;;;;;10.10;2.97;;;;;;;27.95;54.33;101827.69;4961621;28;20489;-88
2022/05/05 12:40:43;;;;;;;11.03;3.90;;;;;;;27.99;53.65;101834.41;4961292;28;20827;-88
2022/05/05 12:43:17;;;;;;;8.90;3.27;;;;;;;28.04;53.97;101825.16;4961656;28;20819;-88
2022/05/05 12:45:47;;;;;;;5.00;2.77;;;;;;;28.23;53.74;101840.31;4978148;28;20447;-88
2022/05/05 12:48:15;;;;;;;11.17;3.03;;;;;;;28.32;54.10;101837.72;4977093;28;20449;-88
2022/05/05 12:50:46;;;;;;;7.83;3.00;;;;;;;28.46;53.17;101830.41;4961103;28;20441;-88
2022/05/05 13:01:53;;;;;;;7.37;3.20;;;;;;;28.81;51.42;101827.44;4965471;28;20477;-88
2022/05/05 13:04:21;;;;;;;6.30;3.40;;;;;;;28.86;52.10;101804.06;4976522;28;20444;-88
2022/05/05 13:06:51;;;;;;;8.00;3.47;;;;;;;28.93;46.88;101806.53;4973169;28;20446;-87
2022/05/05 13:09:20;;;;;;;11.13;3.30;;;;;;;28.92;45.75;101807.66;4942451;28;20434;-87
2022/05/05 13:11:51;;;;;;;20.13;3.87;;;;;;;29.20;47.96;101809.72;4981789;28;21113;-87
2022/05/05 13:14:20;;;;;;;9.80;3.27;;;;;;;29.36;45.05;101813.25;4942212;28;20827;-88
2022/05/05 13:20:36;;;;;;;9.30;3.43;;;;;;;29.10;40.72;101801.34;4993811;28;20589;-87
2022/05/05 13:23:04;;;;;;;10.80;3.40;;;;;;;29.10;40.98;101810.63;4960865;28;20441;-87
2022/05/05 13:25:32;;;;;;;7.20;3.13;;;;;;;29.10;41.80;101810.63;4960950;28;20511;-88
2022/05/05 13:28:01;;;;;;;8.17;3.57;;;;;;;29.01;41.12;101800.28;4960519;28;20969;-88
2022/05/05 13:30:29;;;;;;;11.47;3.83;;;;;;;29.09;41.10;101810.91;4980624;28;20476;-87
2022/05/05 13:33:04;;;;;;;6.37;3.47;;;;;;;29.09;40.34;101800.50;4997660;28;20527;-87
2022/05/05 13:35:32;;;;;;;8.87;3.70;;;;;;;28.97;39.74;101805.66;4964724;28;20440;-87
2022/05/05 13:38:00;;;;;;;6.77;3.20;;;;;;;28.94;40.83;101822.28;4964682;28;20851;-87
2022/05/05 13:40:29;;;;;;;8.50;3.67;;;;;;;28.97;40.00;101810.44;4980549;28;20448;-87
2022/05/05 13:42:58;;;;;;;10.80;3.70;;;;;;;29.06;40.12;101812.34;4996022;28;20447;-87
2022/05/05 13:45:27;;;;;;;6.70;3.00;;;;;;;29.22;39.99;101807.47;4964580;28;20437;-88
2022/05/05 13:47:56;;;;;;;12.60;4.00;;;;;;;29.10;39.08;101805.00;4964799;28;20433;-87
2022/05/05 13:50:23;;;;;;;5.03;2.60;;;;;;;28.77;38.71;101822.63;4980154;28;20452;-88
2022/05/05 13:52:52;;;;;;;6.70;3.20;;;;;;;28.24;39.82;101801.78;4997472;28;20436;-87
2022/05/05 13:55:20;;;;;;;9.53;2.90;;;;;;;28.28;40.48;101802.91;4980430;28;20444;-87
2022/05/05 13:57:48;;;;;;;5.70;2.93;;;;;;;28.41;40.72;101799.47;4964077;28;20472;-87